createdAt,value
2016-04-12T00:00:16.517Z,65.77
2016-04-12T00:01:16.565Z,66.14
2016-04-12T00:02:16.584Z,66.05
2016-04-12T00:03:16.618Z,66.43
2016-04-12T00:04:16.667Z,66.33
2016-04-12T00:05:16.686Z,66.14
2016-04-12T00:06:16.735Z,66.05
2016-04-12T00:07:16.769Z,66.24
2016-04-12T00:08:16.808Z,65.95
2016-04-12T00:09:16.848Z,66.72
2016-04-12T00:10:16.867Z,65.95
2016-04-12T00:11:16.901Z,66.43
2016-04-12T00:12:16.934Z,66.33
2016-04-12T00:13:16.969Z,66.43
2016-04-12T00:14:17.018Z,66.62
2016-04-12T00:15:17.036Z,66.53
2016-04-12T00:16:17.070Z,66.72
2016-04-12T00:17:17.135Z,66.24
2016-04-12T00:18:17.153Z,66.53
2016-04-12T00:19:17.188Z,66.43
2016-04-12T00:20:17.205Z,66.81
2016-04-12T00:21:17.255Z,66.53
2016-04-12T00:22:17.132Z,67.19
2016-04-12T00:23:17.324Z,67.29
2016-04-12T00:24:17.341Z,67.76
2016-04-12T00:25:17.391Z,67.67
2016-04-12T00:26:17.424Z,67.57
2016-04-12T00:27:17.460Z,67.57
2016-04-12T00:28:17.492Z,68.11
2016-04-12T00:29:17.527Z,67.92
2016-04-12T00:30:17.570Z,67.82
2016-04-12T00:31:17.593Z,68.21
2016-04-12T00:32:17.635Z,68.11
2016-04-12T00:33:17.657Z,67.76
2016-04-12T00:34:17.707Z,68.11
2016-04-12T00:35:17.725Z,68.87
2016-04-12T00:36:17.759Z,68.87
2016-04-12T00:37:17.809Z,68.4
2016-04-12T00:38:17.828Z,68.59
2016-04-12T00:39:17.862Z,69.44
2016-04-12T00:40:17.911Z,69.15
2016-04-12T00:41:17.945Z,69.15
2016-04-12T00:42:17.978Z,68.77
2016-04-12T00:43:17.998Z,68.77
2016-04-12T00:44:18.047Z,68.3
2016-04-12T00:45:18.064Z,68.11
2016-04-12T00:46:18.115Z,68.3
2016-04-12T00:47:18.148Z,68.11
2016-04-12T00:48:18.167Z,68.21
2016-04-12T00:49:18.216Z,68.3
2016-04-12T00:50:18.236Z,68.49
2016-04-12T00:51:18.269Z,68.68
2016-04-12T00:52:18.303Z,68.59
2016-04-12T00:53:18.352Z,68.4
2016-04-12T00:54:18.371Z,68.96
2016-04-12T00:55:18.420Z,69.15
2016-04-12T00:56:18.455Z,68.59
2016-04-12T00:57:18.488Z,68.59
2016-04-12T00:58:18.521Z,68.49
2016-04-12T00:59:18.556Z,68.4
2016-04-12T01:00:18.574Z,68.21
2016-04-12T01:01:18.623Z,68.4
2016-04-12T01:02:18.658Z,68.87
2016-04-12T01:03:18.691Z,67.82
2016-04-12T01:04:18.726Z,68.01
2016-04-12T01:05:18.743Z,67.92
2016-04-12T01:06:18.793Z,68.01
2016-04-12T01:07:18.827Z,68.01
2016-04-12T01:08:18.862Z,68.21
2016-04-12T01:09:18.895Z,68.4
2016-04-12T01:10:18.929Z,68.24
2016-04-12T01:11:18.963Z,67.82
2016-04-12T01:12:18.998Z,68.01
2016-04-12T01:13:19.031Z,68.21
2016-04-12T01:14:19.064Z,68.77
2016-04-12T01:15:19.098Z,68.59
2016-04-12T01:16:19.133Z,68.96
2016-04-12T01:17:19.167Z,69.15
2016-04-12T01:18:19.216Z,69.54
2016-04-12T01:19:19.234Z,70.2
2016-04-12T01:20:19.269Z,70.3
2016-04-12T01:21:19.302Z,70.49
2016-04-12T01:22:19.336Z,70.01
2016-04-12T01:23:19.370Z,69.82
2016-04-12T01:24:19.405Z,70.3
2016-04-12T01:25:19.438Z,70.74
2016-04-12T01:26:19.488Z,70.64
2016-04-12T01:27:19.506Z,70.26
2016-04-12T01:28:19.540Z,70.68
2016-04-12T01:29:19.590Z,70.49
2016-04-12T01:30:19.608Z,70.01
2016-04-12T01:31:19.641Z,69.92
2016-04-12T01:32:19.691Z,70.2
2016-04-12T01:33:19.710Z,69.82
2016-04-12T01:34:19.759Z,70.01
2016-04-12T01:35:19.777Z,69.63
2016-04-12T01:36:19.812Z,69.25
2016-04-12T01:37:19.845Z,69.06
2016-04-12T01:38:19.895Z,69.35
2016-04-12T01:39:19.913Z,69.25
2016-04-12T01:40:19.962Z,69.15
2016-04-12T01:41:19.981Z,69.25
2016-04-12T01:42:20.031Z,69.25
2016-04-12T01:43:20.064Z,68.96
2016-04-12T01:44:20.099Z,69.63
2016-04-12T01:45:20.117Z,69.35
2016-04-12T01:46:20.151Z,69.82
2016-04-12T01:47:20.184Z,70.01
2016-04-12T01:48:20.234Z,70.58
2016-04-12T01:49:20.284Z,70.93
2016-04-12T01:50:20.302Z,71.02
2016-04-12T01:51:20.336Z,71.12
2016-04-12T01:52:20.370Z,71.02
2016-04-12T01:53:20.404Z,70.93
2016-04-12T01:54:20.438Z,71.02
2016-04-12T01:55:20.456Z,70.64
2016-04-12T01:56:20.506Z,70.93
2016-04-12T01:57:20.541Z,70.83
2016-04-12T01:58:20.558Z,71.02
2016-04-12T01:59:20.607Z,71.15
2016-04-12T02:00:20.642Z,70.74
2016-04-12T02:01:20.676Z,70.97
2016-04-12T02:02:20.710Z,70.93
2016-04-12T02:03:20.744Z,70.77
2016-04-12T02:04:20.793Z,70.77
2016-04-12T02:05:20.812Z,70.77
2016-04-12T02:06:20.845Z,70.68
2016-04-12T02:07:20.879Z,69.92
2016-04-12T02:08:20.913Z,70.1
2016-04-12T02:09:20.947Z,70.01
2016-04-12T02:10:20.981Z,69.82
2016-04-12T02:11:21.014Z,69.63
2016-04-12T02:12:21.048Z,69.82
2016-04-12T02:13:21.083Z,69.73
2016-04-12T02:14:20.961Z,70.49
2016-04-12T02:15:21.150Z,70.68
2016-04-12T02:16:21.169Z,70.49
2016-04-12T02:17:21.219Z,70.49
2016-04-12T02:18:21.237Z,71.25
2016-04-12T02:19:21.287Z,71.41
2016-04-12T02:20:21.336Z,71.31
2016-04-12T02:21:21.355Z,71.31
2016-04-12T02:22:21.389Z,71.59
2016-04-12T02:23:21.422Z,71.97
2016-04-12T02:24:21.456Z,72.35
2016-04-12T02:25:21.491Z,72.83
2016-04-12T02:26:21.524Z,73.21
2016-04-12T02:27:21.558Z,73.78
2016-04-12T02:28:21.591Z,73.21
2016-04-12T02:29:21.626Z,73.49
2016-04-12T02:30:21.660Z,73.3
2016-04-12T02:31:21.693Z,73.78
2016-04-12T02:32:21.727Z,73.46
2016-04-12T02:33:21.762Z,73.84
2016-04-12T02:34:21.780Z,74.03
2016-04-12T02:35:21.830Z,73.69
2016-04-12T02:36:21.864Z,74.16
2016-04-12T02:37:21.913Z,74.16
2016-04-12T02:38:21.932Z,73.74
2016-04-12T02:39:21.965Z,73.49
2016-04-12T02:40:21.984Z,74.31
2016-04-12T02:41:22.018Z,73.93
2016-04-12T02:42:22.067Z,74.69
2016-04-12T02:43:22.101Z,74.79
2016-04-12T02:44:22.135Z,74.41
2016-04-12T02:45:22.154Z,73.93
2016-04-12T02:46:22.187Z,73.65
2016-04-12T02:47:22.221Z,73.59
2016-04-12T02:48:22.255Z,73.3
2016-04-12T02:49:22.305Z,73.97
2016-04-12T02:50:22.323Z,73.78
2016-04-12T02:51:22.356Z,73.97
2016-04-12T02:52:22.391Z,74.03
2016-04-12T02:53:22.441Z,74.03
2016-04-12T02:54:22.474Z,73.65
2016-04-12T02:55:22.492Z,73.88
2016-04-12T02:56:22.527Z,73.21
2016-04-12T02:57:22.560Z,73.78
2016-04-12T02:58:22.594Z,73.59
2016-04-12T02:59:22.627Z,73.69
2016-04-12T03:00:22.677Z,73.88
2016-04-12T03:01:22.696Z,73.4
2016-04-12T03:02:22.730Z,73.21
2016-04-12T03:03:22.763Z,72.16
2016-04-12T03:04:22.813Z,72.07
2016-04-12T03:05:22.863Z,72.07
2016-04-12T03:06:22.865Z,71.59
2016-04-12T03:07:22.899Z,71.44
2016-04-12T03:08:22.949Z,71.15
2016-04-12T03:09:22.967Z,71.34
2016-04-12T03:10:23.001Z,71.34
2016-04-12T03:11:23.035Z,70.87
2016-04-12T03:12:23.070Z,71.15
2016-04-12T03:13:23.104Z,70.97
2016-04-12T03:14:23.122Z,70.87
2016-04-12T03:15:23.171Z,70.49
2016-04-12T03:16:23.205Z,70.1
2016-04-12T03:17:23.317Z,69.92
2016-04-12T03:18:23.273Z,69.92
2016-04-12T03:19:23.306Z,69.82
2016-04-12T03:20:23.342Z,69.92
2016-04-12T03:21:23.392Z,70.1
2016-04-12T03:22:23.394Z,70.1
2016-04-12T03:23:23.443Z,69.92
2016-04-12T03:24:23.477Z,70.39
2016-04-12T03:25:23.511Z,70.39
2016-04-12T03:26:23.545Z,70.68
2016-04-12T03:27:23.563Z,70.87
2016-04-12T03:28:23.613Z,70.77
2016-04-12T03:29:23.630Z,70.58
2016-04-12T03:30:23.665Z,70.58
2016-04-12T03:31:23.746Z,70.3
2016-04-12T03:32:23.857Z,70.49
2016-04-12T03:33:23.782Z,70.58
2016-04-12T03:34:23.816Z,70.49
2016-04-12T03:35:23.835Z,70.58
2016-04-12T03:36:23.884Z,70.58
2016-04-12T03:37:23.918Z,70.58
2016-04-12T03:38:23.952Z,70.68
2016-04-12T03:39:23.986Z,70.58
2016-04-12T03:40:24.021Z,70.97
2016-04-12T03:41:24.054Z,70.97
2016-04-12T03:42:24.073Z,71.34
2016-04-12T03:43:24.121Z,70.77
2016-04-12T03:44:24.156Z,70.49
2016-04-12T03:45:24.190Z,70.68
2016-04-12T03:46:24.208Z,70.49
2016-04-12T03:47:24.257Z,69.82
2016-04-12T03:48:24.291Z,70.1
2016-04-12T03:49:24.325Z,70.01
2016-04-12T03:50:24.359Z,69.73
2016-04-12T03:51:24.392Z,70.2
2016-04-12T03:52:24.427Z,70.68
2016-04-12T03:53:24.461Z,70.87
2016-04-12T03:54:24.480Z,71.15
2016-04-12T03:55:24.529Z,71.91
2016-04-12T03:56:24.563Z,71.41
2016-04-12T03:57:24.597Z,71.15
2016-04-12T03:58:24.630Z,71.82
2016-04-12T03:59:24.665Z,72.16
2016-04-12T04:00:24.699Z,73.3
2016-04-12T04:01:24.717Z,73.02
2016-04-12T04:02:24.813Z,73.49
2016-04-12T04:03:24.800Z,73.59
2016-04-12T04:04:24.850Z,73.69
2016-04-12T04:05:24.869Z,73.49
2016-04-12T04:06:24.887Z,74.07
2016-04-12T04:07:24.935Z,74.16
2016-04-12T04:08:24.970Z,74.16
2016-04-12T04:09:25.021Z,73.69
2016-04-12T04:10:25.038Z,74.35
2016-04-12T04:11:25.072Z,73.78
2016-04-12T04:12:25.106Z,73.78
2016-04-12T04:13:25.140Z,73.97
2016-04-12T04:14:25.174Z,74.07
2016-04-12T04:15:25.207Z,74.35
2016-04-12T04:16:25.242Z,73.59
2016-04-12T04:17:25.291Z,73.49
2016-04-12T04:18:25.310Z,73.78
2016-04-12T04:19:25.328Z,73.4
2016-04-12T04:20:25.378Z,73.69
2016-04-12T04:21:25.411Z,72.83
2016-04-12T04:22:25.445Z,72.83
2016-04-12T04:23:25.479Z,72.07
2016-04-12T04:24:25.513Z,72.26
2016-04-12T04:25:25.531Z,72.92
2016-04-12T04:26:25.581Z,73.11
2016-04-12T04:27:25.615Z,73.59
2016-04-12T04:28:25.649Z,73.59
2016-04-12T04:29:25.683Z,73.97
2016-04-12T04:30:25.717Z,73.78
2016-04-12T04:31:25.735Z,73.4
2016-04-12T04:32:25.707Z,73.4
2016-04-12T04:33:25.819Z,72.64
2016-04-12T04:34:25.852Z,72.92
2016-04-12T04:35:25.886Z,73.49
2016-04-12T04:36:25.904Z,73.78
2016-04-12T04:37:25.939Z,74.26
2016-04-12T04:38:25.973Z,74.07
2016-04-12T04:39:26.022Z,74.44
2016-04-12T04:40:26.057Z,74.82
2016-04-12T04:41:26.074Z,74.63
2016-04-12T04:42:26.109Z,73.97
2016-04-12T04:43:26.143Z,74.44
2016-04-12T04:44:26.192Z,73.88
2016-04-12T04:45:26.226Z,73.78
2016-04-12T04:46:26.260Z,72.86
2016-04-12T04:47:26.340Z,72.67
2016-04-12T04:48:26.312Z,72.3
2016-04-12T04:49:26.346Z,72.01
2016-04-12T04:50:26.381Z,72.01
2016-04-12T04:51:26.414Z,71.53
2016-04-12T04:52:26.448Z,71.15
2016-04-12T04:53:26.497Z,71.63
2016-04-12T04:54:26.517Z,72.01
2016-04-12T04:55:26.550Z,72.2
2016-04-12T04:56:26.584Z,72.3
2016-04-12T04:57:26.633Z,71.63
2016-04-12T04:58:26.651Z,71.25
2016-04-12T04:59:26.701Z,71.72
2016-04-12T05:00:26.719Z,70.97
2016-04-12T05:01:26.785Z,71.44
2016-04-12T05:02:26.803Z,71.06
2016-04-12T05:03:26.821Z,71.25
2016-04-12T05:04:26.855Z,71.15
2016-04-12T05:05:26.889Z,72.01
2016-04-12T05:06:26.924Z,71.06
2016-04-12T05:07:26.957Z,71.72
2016-04-12T05:08:26.991Z,71.63
2016-04-12T05:09:27.025Z,71.63
2016-04-12T05:10:27.507Z,71.25
2016-04-12T05:11:27.103Z,71.34
2016-04-12T05:12:27.136Z,71.06
2016-04-12T05:13:27.171Z,71.44
2016-04-12T05:14:27.189Z,71.44
2016-04-12T05:15:27.222Z,71.34
2016-04-12T05:16:27.273Z,71.76
2016-04-12T05:17:27.353Z,72.3
2016-04-12T05:18:27.340Z,72.11
2016-04-12T05:19:27.358Z,71.82
2016-04-12T05:20:27.408Z,71.72
2016-04-12T05:21:27.426Z,71.63
2016-04-12T05:22:27.475Z,72.67
2016-04-12T05:23:27.494Z,72.3
2016-04-12T05:24:27.528Z,72.11
2016-04-12T05:25:27.578Z,72.58
2016-04-12T05:26:27.612Z,72.39
2016-04-12T05:27:27.646Z,72.39
2016-04-12T05:28:27.680Z,72.3
2016-04-12T05:29:27.713Z,72.77
2016-04-12T05:30:27.747Z,72.49
2016-04-12T05:31:27.782Z,72.96
2016-04-12T05:32:27.815Z,72.96
2016-04-12T05:33:27.833Z,71.91
2016-04-12T05:34:27.882Z,72.39
2016-04-12T05:35:27.933Z,72.01
2016-04-12T05:36:27.951Z,71.91
2016-04-12T05:37:27.984Z,71.76
2016-04-12T05:38:28.019Z,71.38
2016-04-12T05:39:28.068Z,71.28
2016-04-12T05:40:28.087Z,71.19
2016-04-12T05:41:28.324Z,71.19
2016-04-12T05:42:28.154Z,70.72
2016-04-12T05:43:28.189Z,70.14
2016-04-12T05:44:28.222Z,69.95
2016-04-12T05:45:28.257Z,69.85
2016-04-12T05:46:28.290Z,70.52
2016-04-12T05:47:28.340Z,69.85
2016-04-12T05:48:28.358Z,70.05
2016-04-12T05:49:28.408Z,69.48
2016-04-12T05:50:28.426Z,69.48
2016-04-12T05:51:28.460Z,69.57
2016-04-12T05:52:28.494Z,70.81
2016-04-12T05:53:28.528Z,71.38
2016-04-12T05:54:28.562Z,71.76
2016-04-12T05:55:28.596Z,72.3
2016-04-12T05:56:28.630Z,72.01
2016-04-12T05:57:28.664Z,72.01
2016-04-12T05:58:28.713Z,72.62
2016-04-12T05:59:28.747Z,71.95
2016-04-12T06:00:28.781Z,73.06
2016-04-12T06:01:28.815Z,72.67
2016-04-12T06:02:28.849Z,72.11
2016-04-12T06:03:28.883Z,72.3
2016-04-12T06:04:28.902Z,72.49
2016-04-12T06:05:28.951Z,72.2
2016-04-12T06:06:28.984Z,72.3
2016-04-12T06:07:29.019Z,72.01
2016-04-12T06:08:29.052Z,71.95
2016-04-12T06:09:29.071Z,71.86
2016-04-12T06:10:29.121Z,72.14
2016-04-12T06:11:29.154Z,72.49
2016-04-12T06:12:29.188Z,72.49
2016-04-12T06:13:29.222Z,72.39
2016-04-12T06:14:29.256Z,72.3
2016-04-12T06:15:29.290Z,72.3
2016-04-12T06:16:29.324Z,72.96
2016-04-12T06:17:29.358Z,72.67
2016-04-12T06:18:29.392Z,72.62
2016-04-12T06:19:29.426Z,71.63
2016-04-12T06:20:29.459Z,71.86
2016-04-12T06:21:29.509Z,71.57
2016-04-12T06:22:29.528Z,71
2016-04-12T06:23:29.562Z,70.72
2016-04-12T06:24:29.595Z,70.81
2016-04-12T06:25:29.630Z,70.33
2016-04-12T06:26:29.664Z,69.57
2016-04-12T06:27:29.713Z,68.71
2016-04-12T06:28:29.730Z,68.46
2016-04-12T06:29:29.781Z,68.37
2016-04-12T06:30:29.799Z,67.51
2016-04-12T06:31:29.849Z,67.7
2016-04-12T06:32:29.883Z,67.8
2016-04-12T06:33:29.916Z,67.7
2016-04-12T06:34:29.951Z,67.13
2016-04-12T06:35:29.985Z,67.51
2016-04-12T06:36:30.003Z,67.51
2016-04-12T06:37:30.037Z,67.8
2016-04-12T06:38:30.102Z,67.8
2016-04-12T06:39:30.121Z,68.27
2016-04-12T06:40:30.155Z,68.46
2016-04-12T06:41:30.188Z,68.18
2016-04-12T06:42:30.222Z,67.89
2016-04-12T06:43:30.256Z,67.8
2016-04-12T06:44:30.290Z,67.51
2016-04-12T06:45:30.340Z,67.35
2016-04-12T06:46:30.358Z,66.59
2016-04-12T06:47:30.392Z,66.31
2016-04-12T06:48:30.270Z,66.31
2016-04-12T06:49:30.475Z,65.16
2016-04-12T06:50:30.494Z,65.64
2016-04-12T06:51:30.528Z,65.45
2016-04-12T06:52:30.593Z,64.53
2016-04-12T06:53:30.611Z,63.86
2016-04-12T06:54:30.630Z,63.48
2016-04-12T06:55:30.679Z,63.1
2016-04-12T06:56:30.714Z,63.29
2016-04-12T06:57:30.747Z,63.76
2016-04-12T06:58:30.781Z,63.2
2016-04-12T06:59:30.814Z,63.1
2016-04-12T07:00:30.849Z,63.67
2016-04-12T07:01:30.882Z,63.48
2016-04-12T07:02:30.916Z,63.96
2016-04-12T07:03:32.060Z,63.57
2016-04-12T07:04:31.000Z,63.57
2016-04-12T07:05:31.034Z,63.76
2016-04-12T07:06:31.083Z,63.76
2016-04-12T07:07:31.102Z,63.96
2016-04-12T07:08:31.151Z,63.57
2016-04-12T07:09:31.185Z,63.57
2016-04-12T07:10:31.219Z,63.2
2016-04-12T07:11:31.253Z,63.04
2016-04-12T07:12:31.287Z,62.94
2016-04-12T07:13:31.321Z,61.89
2016-04-12T07:14:31.371Z,61.51
2016-04-12T07:15:31.389Z,61.25
2016-04-12T07:16:31.470Z,60.21
2016-04-12T07:17:31.473Z,59.44
2016-04-12T07:18:31.506Z,59.34
2016-04-12T07:19:31.540Z,59.06
2016-04-12T07:20:31.575Z,58.97
2016-04-12T07:21:31.609Z,58.39
2016-04-12T07:22:31.642Z,58.14
2016-04-12T07:23:31.692Z,57.46
2016-04-12T07:24:31.725Z,56.7
2016-04-12T07:25:31.759Z,55.68
2016-04-12T07:26:31.809Z,55.49
2016-04-12T07:27:31.828Z,54.27
2016-04-12T07:28:31.861Z,54.56
2016-04-12T07:29:31.911Z,54.44
2016-04-12T07:30:31.945Z,54.47
2016-04-12T07:31:31.994Z,54.82
2016-04-12T07:32:32.028Z,54.63
2016-04-12T07:33:32.063Z,55.87
2016-04-12T07:34:32.113Z,55.49
2016-04-12T07:35:32.130Z,55.11
2016-04-12T07:36:32.179Z,55.3
2016-04-12T07:37:32.214Z,55.68
2016-04-12T07:38:32.248Z,55.87
2016-04-12T07:39:32.282Z,55.3
2016-04-12T07:40:32.316Z,54.44
2016-04-12T07:41:32.365Z,54.47
2016-04-12T07:42:32.387Z,53.61
2016-04-12T07:43:32.484Z,52.94
2016-04-12T07:44:32.567Z,52.17
2016-04-12T07:45:32.648Z,51.91
2016-04-12T07:46:32.747Z,51.34
2016-04-12T07:47:32.826Z,50.67
2016-04-12T07:48:32.877Z,50.31
2016-04-12T07:49:32.943Z,51.36
2016-04-12T07:50:32.995Z,51.43
2016-04-12T07:51:33.062Z,51.81
2016-04-12T07:52:33.097Z,52.39
2016-04-12T07:53:33.153Z,51.62
2016-04-12T07:54:33.192Z,51.72
2016-04-12T07:55:33.248Z,51.53
2016-04-12T07:56:33.288Z,51.53
2016-04-12T07:57:33.328Z,51.43
2016-04-12T07:58:33.380Z,51.43
2016-04-12T07:59:33.417Z,51.72
2016-04-12T08:00:33.437Z,51.34
2016-04-12T08:01:33.504Z,51.34
2016-04-12T08:02:33.524Z,50.76
2016-04-12T08:03:33.575Z,50.41
2016-04-12T08:04:33.610Z,50.41
2016-04-12T08:05:33.645Z,51.07
2016-04-12T08:06:33.695Z,51.27
2016-04-12T08:07:33.730Z,50.5
2016-04-12T08:08:33.769Z,50.21
2016-04-12T08:09:33.803Z,50.6
2016-04-12T08:10:33.852Z,50.5
2016-04-12T08:11:33.887Z,50.31
2016-04-12T08:12:33.922Z,49.29
2016-04-12T08:13:33.970Z,48.9
2016-04-12T08:14:33.994Z,49.38
2016-04-12T08:15:34.044Z,49.19
2016-04-12T08:16:34.078Z,49.57
2016-04-12T08:17:34.112Z,49.76
2016-04-12T08:18:34.161Z,48.83
2016-04-12T08:19:34.210Z,47.87
2016-04-12T08:20:34.245Z,47.32
2016-04-12T08:21:34.294Z,46.55
2016-04-12T08:22:34.328Z,47.13
2016-04-12T08:23:34.377Z,47.42
2016-04-12T08:24:34.397Z,47.03
2016-04-12T08:25:34.290Z,47.61
2016-04-12T08:26:34.495Z,47.61
2016-04-12T08:27:34.545Z,47.68
2016-04-12T08:28:34.579Z,47.97
2016-04-12T08:29:34.629Z,47.51
2016-04-12T08:30:34.663Z,46.65
2016-04-12T08:31:34.696Z,46.17
2016-04-12T08:32:34.746Z,46.26
2016-04-12T08:33:34.779Z,45.69
2016-04-12T08:34:34.845Z,44.56
2016-04-12T08:35:34.863Z,44.09
2016-04-12T08:36:34.913Z,43.15
2016-04-12T08:37:34.962Z,42.77
2016-04-12T08:38:34.996Z,41.16
2016-04-12T08:39:35.031Z,41.17
2016-04-12T08:40:35.081Z,39.56
2016-04-12T08:41:35.114Z,39.37
2016-04-12T08:42:35.164Z,38.34
2016-04-12T08:43:35.198Z,37.97
2016-04-12T08:44:35.247Z,36.62
2016-04-12T08:45:35.281Z,36.45
2016-04-12T08:46:35.331Z,36.54
2016-04-12T08:47:35.380Z,36.07
2016-04-12T08:48:35.398Z,35.39
2016-04-12T08:49:35.448Z,34.83
2016-04-12T08:50:35.482Z,33.89
2016-04-12T08:51:35.516Z,33.42
2016-04-12T08:52:35.566Z,34.09
2016-04-12T08:53:35.615Z,36.18
2016-04-12T08:54:35.649Z,37.41
2016-04-12T08:55:35.699Z,37.39
2016-04-12T08:56:35.733Z,36.54
2016-04-12T08:57:35.782Z,36.54
2016-04-12T08:58:35.816Z,36.37
2016-04-12T08:59:35.850Z,36.56
2016-04-12T09:00:35.899Z,36.37
2016-04-12T09:01:35.949Z,37.22
2016-04-12T09:02:35.999Z,37.97
2016-04-12T09:03:36.032Z,38.93
2016-04-12T09:04:36.066Z,39.49
2016-04-12T09:05:36.131Z,39.78
2016-04-12T09:06:36.165Z,40.91
2016-04-12T09:07:36.215Z,41.87
2016-04-12T09:08:36.265Z,42.52
2016-04-12T09:09:36.303Z,42.9
2016-04-12T09:10:36.337Z,43.17
2016-04-12T09:11:36.387Z,43.74
2016-04-12T09:12:36.421Z,45.16
2016-04-12T09:13:36.470Z,45.9
2016-04-12T09:14:36.520Z,46.29
2016-04-12T09:15:36.585Z,45.72
2016-04-12T09:16:36.603Z,45.62
2016-04-12T09:17:36.653Z,44.85
2016-04-12T09:18:36.766Z,44.85
2016-04-12T09:19:36.752Z,44.76
2016-04-12T09:20:36.786Z,44.49
2016-04-12T09:21:36.835Z,44.01
2016-04-12T09:22:36.885Z,44.01
2016-04-12T09:23:36.919Z,43.44
2016-04-12T09:24:36.969Z,44.3
2016-04-12T09:25:37.018Z,44.68
2016-04-12T09:26:37.052Z,44.56
2016-04-12T09:27:37.102Z,44.56
2016-04-12T09:28:37.151Z,44.47
2016-04-12T09:29:37.185Z,44.56
2016-04-12T09:30:37.235Z,44.66
2016-04-12T09:31:37.269Z,44.56
2016-04-12T09:32:37.303Z,45.59
2016-04-12T09:33:37.399Z,45.98
2016-04-12T09:34:37.402Z,46.17
2016-04-12T09:35:37.452Z,45.89
2016-04-12T09:36:37.485Z,44.54
2016-04-12T09:37:37.535Z,43.8
2016-04-12T09:38:37.412Z,44.16
2016-04-12T09:39:37.618Z,44.16
2016-04-12T09:40:37.653Z,43.97
2016-04-12T09:41:37.703Z,44.06
2016-04-12T09:42:37.736Z,44.35
2016-04-12T09:43:37.770Z,44.45
2016-04-12T09:44:37.819Z,44.93
2016-04-12T09:45:38.056Z,44.64
2016-04-12T09:46:37.887Z,43.97
2016-04-12T09:47:37.937Z,44.26
2016-04-12T09:48:38.017Z,44.06
2016-04-12T09:49:38.020Z,43.41
2016-04-12T09:50:38.055Z,43.41
2016-04-12T09:51:38.104Z,44.06
2016-04-12T09:52:38.137Z,43.51
2016-04-12T09:53:38.187Z,42.07
2016-04-12T09:54:38.222Z,42.46
2016-04-12T09:55:38.271Z,42.36
2016-04-12T09:56:38.305Z,41.97
2016-04-12T09:57:38.370Z,41.69
2016-04-12T09:58:38.388Z,41.21
2016-04-12T09:59:38.422Z,41.31
2016-04-12T10:00:38.457Z,41.69
2016-04-12T10:01:38.522Z,41.78
2016-04-12T10:02:38.555Z,41.71
2016-04-12T10:03:38.620Z,42.19
2016-04-12T10:04:38.623Z,42.46
2016-04-12T10:05:38.673Z,41.31
2016-04-12T10:06:38.706Z,40.92
2016-04-12T10:07:38.757Z,41.4
2016-04-12T10:08:38.806Z,41.5
2016-04-12T10:09:38.840Z,41.11
2016-04-12T10:10:38.873Z,40.9
2016-04-12T10:11:38.923Z,40.54
2016-04-12T10:12:38.973Z,41.21
2016-04-12T10:13:38.991Z,40.17
2016-04-12T10:14:39.056Z,39.79
2016-04-12T10:15:39.089Z,39.97
2016-04-12T10:16:39.125Z,40.44
2016-04-12T10:17:39.158Z,40.44
2016-04-12T10:18:39.286Z,40.44
2016-04-12T10:19:39.241Z,40.94
2016-04-12T10:20:39.275Z,40.56
2016-04-12T10:21:39.325Z,40.94
2016-04-12T10:22:39.359Z,40.35
2016-04-12T10:23:39.394Z,40.37
2016-04-12T10:24:39.443Z,41.21
2016-04-12T10:25:39.476Z,41.04
2016-04-12T10:26:39.526Z,39.7
2016-04-12T10:27:39.560Z,39.5
2016-04-12T10:28:39.594Z,39.03
2016-04-12T10:29:39.659Z,38.54
2016-04-12T10:30:39.709Z,39.89
2016-04-12T10:31:39.743Z,40.81
2016-04-12T10:32:39.776Z,41.02
2016-04-12T10:33:39.857Z,41.09
2016-04-12T10:34:39.845Z,40.81
2016-04-12T10:35:39.909Z,39.85
2016-04-12T10:36:39.929Z,39.65
2016-04-12T10:37:40.009Z,39.47
2016-04-12T10:38:40.012Z,39.28
2016-04-12T10:39:40.045Z,38.41
2016-04-12T10:40:40.079Z,38.05
2016-04-12T10:41:40.128Z,37.38
2016-04-12T10:42:40.162Z,37.57
2016-04-12T10:43:40.213Z,37.57
2016-04-12T10:44:40.247Z,37.66
2016-04-12T10:45:40.281Z,37.74
2016-04-12T10:46:40.330Z,37.76
2016-04-12T10:47:40.364Z,38.05
2016-04-12T10:48:40.398Z,37.57
2016-04-12T10:49:40.448Z,37.4
2016-04-12T10:50:40.481Z,37.11
2016-04-12T10:51:40.515Z,37.49
2016-04-12T10:52:40.581Z,37.4
2016-04-12T10:53:40.599Z,37.4
2016-04-12T10:54:40.649Z,37.97
2016-04-12T10:55:40.683Z,37.11
2016-04-12T10:56:40.732Z,37.2
2016-04-12T10:57:40.766Z,37.4
2016-04-12T10:58:40.815Z,37.01
2016-04-12T10:59:40.849Z,36.24
2016-04-12T11:00:40.899Z,36.15
2016-04-12T11:01:40.917Z,36.05
2016-04-12T11:02:40.966Z,36.34
2016-04-12T11:03:41.001Z,36.44
2016-04-12T11:04:41.050Z,36.05
2016-04-12T11:05:41.084Z,35.78
2016-04-12T11:06:41.134Z,35.57
2016-04-12T11:07:41.183Z,35.96
2016-04-12T11:08:41.217Z,35.96
2016-04-12T11:09:41.252Z,35.86
2016-04-12T11:10:41.301Z,35.3
2016-04-12T11:11:41.334Z,34.73
2016-04-12T11:12:41.368Z,34.82
2016-04-12T11:13:41.417Z,34.45
2016-04-12T11:14:41.453Z,34.17
2016-04-12T11:15:41.501Z,34.17
2016-04-12T11:16:41.536Z,33.61
2016-04-12T11:17:41.600Z,33.31
2016-04-12T11:18:41.634Z,33.78
2016-04-12T11:19:41.653Z,33.4
2016-04-12T11:20:41.702Z,33.42
2016-04-12T11:21:41.736Z,33.5
2016-04-12T11:22:41.786Z,33.42
2016-04-12T11:23:41.820Z,32.93
2016-04-12T11:24:41.870Z,33.42
2016-04-12T11:25:41.903Z,33.51
2016-04-12T11:26:41.938Z,33.42
2016-04-12T11:27:42.002Z,33.11
2016-04-12T11:28:42.036Z,32.84
2016-04-12T11:29:42.086Z,32.92
2016-04-12T11:30:42.105Z,32.82
2016-04-12T11:31:42.155Z,33.21
2016-04-12T11:32:42.187Z,33.11
2016-04-12T11:33:42.238Z,33.11
2016-04-12T11:34:42.272Z,33.21
2016-04-12T11:35:42.337Z,32.92
2016-04-12T11:36:42.371Z,32.46
2016-04-12T11:37:42.404Z,32.17
2016-04-12T11:38:42.438Z,31.88
2016-04-12T11:39:42.472Z,31.49
2016-04-12T11:40:42.537Z,31.69
2016-04-12T11:41:42.571Z,31.98
2016-04-12T11:42:42.620Z,31.96
2016-04-12T11:43:42.655Z,32.92
2016-04-12T11:44:42.690Z,33.03
2016-04-12T11:45:42.723Z,32.93
2016-04-12T11:46:42.788Z,33.13
2016-04-12T11:47:42.822Z,33.23
2016-04-12T11:48:42.856Z,32.93
2016-04-12T11:49:42.890Z,32.26
2016-04-12T11:50:42.939Z,31.3
2016-04-12T11:51:42.973Z,31.49
2016-04-12T11:52:43.022Z,31.98
2016-04-12T11:53:43.057Z,31.3
2016-04-12T11:54:43.106Z,30.44
2016-04-12T11:55:43.141Z,30.54
2016-04-12T11:56:43.190Z,30.17
2016-04-12T11:57:43.239Z,29.3
2016-04-12T11:58:43.274Z,30.07
2016-04-12T11:59:43.308Z,30.63
2016-04-12T12:00:43.358Z,30.54
2016-04-12T12:01:43.391Z,30.54
2016-04-12T12:02:43.441Z,30.54
2016-04-12T12:03:43.474Z,30.54
2016-04-12T12:04:43.508Z,31.69
2016-04-12T12:05:43.558Z,31.69
2016-04-12T12:06:43.592Z,31.59
2016-04-12T12:07:43.641Z,31.3
2016-04-12T12:08:43.676Z,30.65
2016-04-12T12:09:43.725Z,30.36
2016-04-12T12:10:43.774Z,30.55
2016-04-12T12:11:43.808Z,30.26
2016-04-12T12:12:43.858Z,30.55
2016-04-12T12:13:43.940Z,29.59
2016-04-12T12:14:43.926Z,29.4
2016-04-12T12:15:43.975Z,28.92
2016-04-12T12:16:44.009Z,29.88
2016-04-12T12:17:43.903Z,29.69
2016-04-12T12:18:44.109Z,30.07
2016-04-12T12:19:44.143Z,29.88
2016-04-12T12:20:44.176Z,29.79
2016-04-12T12:21:44.211Z,30.55
2016-04-12T12:22:44.261Z,29.69
2016-04-12T12:23:44.309Z,29.4
2016-04-12T12:24:44.359Z,29.21
2016-04-12T12:25:44.378Z,29.32
2016-04-12T12:26:44.427Z,28.63
2016-04-12T12:27:44.477Z,29.49
2016-04-12T12:28:44.511Z,30.74
2016-04-12T12:29:44.560Z,30.36
2016-04-12T12:30:44.610Z,30.85
2016-04-12T12:31:44.644Z,31.51
2016-04-12T12:32:44.677Z,28.84
2016-04-12T12:33:44.711Z,28.25
2016-04-12T12:34:44.761Z,28.45
2016-04-12T12:35:44.810Z,27.97
2016-04-12T12:36:44.860Z,27.97
2016-04-12T12:37:45.066Z,26.62
2016-04-12T12:38:44.929Z,27.67
2016-04-12T12:39:44.962Z,28.07
2016-04-12T12:40:45.012Z,28.25
2016-04-12T12:41:45.061Z,27.87
2016-04-12T12:42:45.095Z,28.36
2016-04-12T12:43:45.145Z,28.16
2016-04-12T12:44:45.179Z,27.86
2016-04-12T12:45:45.229Z,28.53
2016-04-12T12:46:45.262Z,27.87
2016-04-12T12:47:45.295Z,28.36
2016-04-12T12:48:45.345Z,27.69
2016-04-12T12:49:45.395Z,28.36
2016-04-12T12:50:45.444Z,28.55
2016-04-12T12:51:45.464Z,29.21
2016-04-12T12:52:45.544Z,29.3
2016-04-12T12:53:45.561Z,28.64
2016-04-12T12:54:45.596Z,28.45
2016-04-12T12:55:45.645Z,28.44